createdAt,value
2023-02-25T00:00:31.842Z,10.40
2023-02-25T00:02:59.082Z,10.30
2023-02-25T00:05:26.240Z,10.30
2023-02-25T00:07:54.091Z,10.30
2023-02-25T00:10:20.972Z,10.30
2023-02-25T00:12:47.542Z,10.30
2023-02-25T00:15:14.127Z,10.20
2023-02-25T00:17:40.767Z,10.20
2023-02-25T00:20:09.801Z,10.20
2023-02-25T00:22:36.636Z,10.20
2023-02-25T00:25:03.294Z,10.30
2023-02-25T00:27:29.993Z,10.30
2023-02-25T00:29:56.573Z,10.30
2023-02-25T00:32:23.599Z,10.40
2023-02-25T00:34:51.900Z,10.40
2023-02-25T00:37:18.594Z,10.30
2023-02-25T00:39:45.393Z,10.30
2023-02-25T00:42:14.483Z,10.30
2023-02-25T00:44:45.105Z,10.30
2023-02-25T00:47:11.986Z,10.20
2023-02-25T00:49:38.517Z,10.20
2023-02-25T00:52:05.082Z,10.30
2023-02-25T00:54:32.974Z,10.40
2023-02-25T00:56:59.526Z,10.40
2023-02-25T00:59:26.150Z,10.50
2023-02-25T01:01:52.958Z,10.40
2023-02-25T01:04:19.603Z,10.40
2023-02-25T01:06:46.225Z,10.30
2023-02-25T01:09:13.893Z,10.30
2023-02-25T01:11:44.112Z,10.20
2023-02-25T01:14:16.976Z,10.10
2023-02-25T01:16:45.051Z,10.10
2023-02-25T01:19:21.526Z,10.10
2023-02-25T01:21:51.081Z,10.00
2023-02-25T01:24:20.808Z,10.00
2023-02-25T01:26:49.534Z,10.10
2023-02-25T01:29:18.969Z,10.10
2023-02-25T01:31:45.913Z,10.10
2023-02-25T01:34:18.014Z,10.00
2023-02-25T01:36:45.512Z,10.00
2023-02-25T01:39:14.114Z,9.90
2023-02-25T01:41:41.185Z,9.70
2023-02-25T01:44:18.289Z,9.60
2023-02-25T01:46:47.452Z,9.60
2023-02-25T01:49:39.204Z,9.60
2023-02-25T01:52:16.557Z,9.60
2023-02-25T01:54:45.167Z,9.60
2023-02-25T01:57:14.037Z,9.60
2023-02-25T01:59:42.763Z,9.50
2023-02-25T02:02:12.013Z,9.50
2023-02-25T02:04:41.101Z,9.40
2023-02-25T02:07:07.886Z,9.40
2023-02-25T02:09:34.648Z,9.40
2023-02-25T02:12:06.675Z,9.40
2023-02-25T02:14:37.043Z,9.50
2023-02-25T02:17:21.937Z,9.50
2023-02-25T02:19:49.624Z,9.60
2023-02-25T02:22:28.105Z,9.50
2023-02-25T02:25:16.763Z,9.50
2023-02-25T02:28:01.242Z,9.50
2023-02-25T02:30:28.271Z,9.50
2023-02-25T02:33:10.049Z,9.50
2023-02-25T02:35:53.106Z,9.40
2023-02-25T02:38:57.846Z,9.40
2023-02-25T02:41:46.856Z,9.30
2023-02-25T02:44:31.325Z,9.30
2023-02-25T02:47:03.426Z,9.30
2023-02-25T02:49:43.330Z,9.40
2023-02-25T02:52:18.184Z,9.30
2023-02-25T02:54:48.842Z,9.20
2023-02-25T02:57:17.022Z,9.20
2023-02-25T02:59:49.975Z,9.20
2023-02-25T03:02:22.635Z,9.30
2023-02-25T03:04:53.171Z,9.30
2023-02-25T03:07:22.862Z,9.30
2023-02-25T03:09:52.843Z,9.30
2023-02-25T03:12:19.806Z,9.30
2023-02-25T03:14:46.393Z,9.30
2023-02-25T03:17:28.644Z,9.30
2023-02-25T03:20:16.483Z,9.20
2023-02-25T03:22:46.662Z,9.10
2023-02-25T03:25:30.681Z,9.00
2023-02-25T03:28:03.066Z,9.00
2023-02-25T03:30:35.799Z,8.90
2023-02-25T03:33:28.061Z,9.00
2023-02-25T03:35:59.388Z,9.00
2023-02-25T03:38:28.933Z,9.10
2023-02-25T03:40:57.576Z,9.10
2023-02-25T03:43:39.233Z,9.10
2023-02-25T03:46:06.492Z,8.90
2023-02-25T03:48:36.678Z,8.80
2023-02-25T03:51:05.643Z,8.70
2023-02-25T03:53:35.281Z,8.60
2023-02-25T03:56:08.367Z,8.60
2023-02-25T03:58:38.341Z,8.60
2023-02-25T04:01:17.277Z,8.70
2023-02-25T04:03:43.982Z,8.80
2023-02-25T04:06:12.722Z,8.80
2023-02-25T04:08:40.031Z,8.70
2023-02-25T04:11:06.781Z,8.60
2023-02-25T04:13:33.295Z,8.60
2023-02-25T04:15:59.902Z,8.60
2023-02-25T04:18:26.543Z,8.60
2023-02-25T04:20:53.238Z,8.60
2023-02-25T04:23:19.842Z,8.50
2023-02-25T04:25:46.429Z,8.50
2023-02-25T04:28:13.093Z,8.50
2023-02-25T04:30:39.704Z,8.60
2023-02-25T04:33:06.262Z,8.60
2023-02-25T04:35:32.990Z,8.70
2023-02-25T04:37:59.506Z,8.60
2023-02-25T04:40:26.164Z,8.70
2023-02-25T04:42:52.784Z,8.70
2023-02-25T04:45:20.431Z,8.70
2023-02-25T04:47:46.978Z,8.60
2023-02-25T04:50:13.568Z,8.70
2023-02-25T04:52:40.087Z,8.60
2023-02-25T04:55:09.638Z,8.60
2023-02-25T04:57:42.152Z,8.60
2023-02-25T05:00:20.623Z,8.50
2023-02-25T05:02:48.175Z,8.60
2023-02-25T05:05:15.220Z,8.60
2023-02-25T05:07:41.903Z,8.70
2023-02-25T05:10:10.618Z,8.70
2023-02-25T05:12:37.609Z,8.70
2023-02-25T05:15:05.430Z,8.70
2023-02-25T05:17:32.908Z,8.60
2023-02-25T05:19:59.884Z,8.60
2023-02-25T05:22:27.351Z,8.70
2023-02-25T05:24:54.013Z,8.70
2023-02-25T05:27:20.606Z,8.60
2023-02-25T05:29:47.170Z,8.60
2023-02-25T05:32:13.992Z,8.50
2023-02-25T05:34:41.441Z,8.50
2023-02-25T05:37:08.039Z,8.40
2023-02-25T05:39:34.562Z,8.30
2023-02-25T05:42:01.081Z,8.30
2023-02-25T05:44:27.618Z,8.30
2023-02-25T05:46:54.312Z,8.30
2023-02-25T05:49:20.939Z,8.30
2023-02-25T05:51:49.164Z,8.30
2023-02-25T05:54:15.813Z,8.20
2023-02-25T05:56:44.229Z,8.20
2023-02-25T05:59:11.988Z,8.20
2023-02-25T06:01:38.920Z,8.30
2023-02-25T06:04:05.558Z,8.30
2023-02-25T06:06:32.873Z,8.30
2023-02-25T06:08:59.775Z,8.20
2023-02-25T06:11:29.199Z,8.20
2023-02-25T06:13:57.269Z,8.20
2023-02-25T06:16:31.760Z,8.10
2023-02-25T06:19:00.956Z,8.10
2023-02-25T06:21:27.815Z,8.10
2023-02-25T06:23:54.641Z,8.10
2023-02-25T06:26:21.499Z,8.00
2023-02-25T06:28:48.289Z,8.00
2023-02-25T06:31:17.431Z,8.00
2023-02-25T06:33:45.337Z,7.90
2023-02-25T06:36:12.796Z,7.90
2023-02-25T06:38:39.467Z,7.90
2023-02-25T06:41:09.067Z,7.90
2023-02-25T06:43:36.423Z,7.80
2023-02-25T06:46:07.784Z,7.80
2023-02-25T06:48:34.773Z,7.80
2023-02-25T06:51:02.785Z,7.70
2023-02-25T06:53:30.428Z,7.80
2023-02-25T06:55:58.714Z,7.60
2023-02-25T06:58:25.286Z,7.50
2023-02-25T07:00:51.830Z,7.30
2023-02-25T07:03:18.442Z,7.30
2023-02-25T07:05:45.012Z,7.30
2023-02-25T07:08:11.684Z,7.30
2023-02-25T07:10:40.394Z,7.40
2023-02-25T07:13:08.427Z,7.60
2023-02-25T07:15:35.952Z,7.70
2023-02-25T07:18:03.584Z,7.80
2023-02-25T07:20:31.026Z,7.90
2023-02-25T07:22:57.683Z,7.70
2023-02-25T07:25:24.442Z,7.70
2023-02-25T07:27:51.047Z,7.80
2023-02-25T07:30:17.819Z,7.90
2023-02-25T07:32:44.532Z,7.90
2023-02-25T07:35:11.640Z,7.80
2023-02-25T07:37:38.858Z,7.70
2023-02-25T07:40:09.911Z,7.60
2023-02-25T07:42:36.657Z,7.40
2023-02-25T07:45:03.436Z,7.30
2023-02-25T07:47:29.982Z,7.20
2023-02-25T07:49:56.710Z,7.10
2023-02-25T07:52:23.322Z,7.30
2023-02-25T07:54:49.831Z,7.20
2023-02-25T07:57:16.467Z,7.20
2023-02-25T07:59:42.987Z,7.00
2023-02-25T08:02:11.494Z,7.00
2023-02-25T08:04:38.188Z,6.90
2023-02-25T08:07:04.754Z,6.80
2023-02-25T08:09:31.318Z,6.80
2023-02-25T08:11:58.090Z,6.80
2023-02-25T08:14:24.728Z,6.70
2023-02-25T08:16:55.013Z,6.80
2023-02-25T08:19:21.553Z,6.80
2023-02-25T08:21:48.353Z,6.80
2023-02-25T08:24:14.968Z,6.80
2023-02-25T08:26:41.568Z,6.80
2023-02-25T08:29:08.118Z,6.70
2023-02-25T08:31:34.898Z,6.50
2023-02-25T08:34:01.647Z,6.50
2023-02-25T08:36:31.160Z,6.50
2023-02-25T08:38:59.624Z,6.60
2023-02-25T08:41:28.637Z,6.60
2023-02-25T08:43:57.134Z,6.80
2023-02-25T08:46:26.080Z,6.80
2023-02-25T08:48:53.793Z,6.90
2023-02-25T08:51:22.901Z,7.00
2023-02-25T08:53:50.539Z,7.10
2023-02-25T08:56:17.331Z,7.20
2023-02-25T08:58:44.268Z,7.20
2023-02-25T09:01:13.642Z,7.20
2023-02-25T09:03:50.958Z,7.30
2023-02-25T09:06:22.381Z,7.20
2023-02-25T09:08:49.841Z,7.20
2023-02-25T09:11:16.741Z,7.30
2023-02-25T09:13:43.720Z,7.40
2023-02-25T09:16:10.711Z,7.50
2023-02-25T09:18:37.546Z,7.50
2023-02-25T09:21:04.454Z,7.50
2023-02-25T09:23:31.089Z,7.50
2023-02-25T09:26:01.517Z,7.50
2023-02-25T09:28:28.032Z,7.60
2023-02-25T09:30:56.829Z,7.70
2023-02-25T09:33:24.410Z,7.70
2023-02-25T09:35:51.020Z,7.70
2023-02-25T09:38:17.582Z,7.60
2023-02-25T09:40:48.782Z,7.60
2023-02-25T09:43:26.739Z,7.70
2023-02-25T09:45:58.543Z,7.70
2023-02-25T09:48:32.812Z,7.70
2023-02-25T09:51:18.165Z,7.70
2023-02-25T09:53:57.879Z,7.70
2023-02-25T09:56:27.311Z,7.70
2023-02-25T09:58:59.007Z,7.70
2023-02-25T10:01:34.143Z,7.70
2023-02-25T10:04:22.159Z,7.60
2023-02-25T10:06:51.164Z,7.50
2023-02-25T10:09:28.582Z,7.60
2023-02-25T10:12:13.183Z,7.60
2023-02-25T10:14:48.679Z,7.60
2023-02-25T10:17:24.087Z,7.70
2023-02-25T10:20:31.871Z,7.70
2023-02-25T10:23:17.521Z,7.70
2023-02-25T10:26:02.995Z,7.60
2023-02-25T10:28:32.337Z,7.60
2023-02-25T10:31:02.232Z,7.60
2023-02-25T10:33:34.631Z,7.70
2023-02-25T10:36:14.531Z,7.70
2023-02-25T10:38:46.981Z,7.70
2023-02-25T10:41:14.390Z,7.80
2023-02-25T10:43:42.032Z,7.80
2023-02-25T10:46:15.678Z,7.80
2023-02-25T10:48:48.060Z,7.80
2023-02-25T10:51:16.196Z,7.80
2023-02-25T10:53:57.972Z,7.70
2023-02-25T10:56:28.444Z,7.70
2023-02-25T10:59:00.841Z,7.70
2023-02-25T11:01:43.797Z,7.70
2023-02-25T11:04:13.436Z,7.80
2023-02-25T11:06:43.280Z,7.80
2023-02-25T11:09:18.810Z,7.90
2023-02-25T11:12:09.926Z,7.90
2023-02-25T11:14:38.453Z,8.10
2023-02-25T11:17:13.644Z,8.20
2023-02-25T11:19:47.495Z,8.30
2023-02-25T11:22:20.793Z,8.30
2023-02-25T11:24:59.361Z,8.40
2023-02-25T11:27:40.647Z,8.40
2023-02-25T11:30:07.486Z,8.40
2023-02-25T11:32:34.655Z,8.30
2023-02-25T11:35:10.134Z,8.30
2023-02-25T11:37:43.278Z,8.30
2023-02-25T11:40:30.481Z,8.30
2023-02-25T11:43:03.245Z,8.30
2023-02-25T11:45:33.401Z,8.30
2023-02-25T11:48:02.401Z,8.30
2023-02-25T11:50:40.561Z,8.30
2023-02-25T11:53:40.224Z,8.30
2023-02-25T11:56:14.655Z,8.40
2023-02-25T11:58:59.168Z,8.40
2023-02-25T12:01:47.782Z,8.40
2023-02-25T12:04:26.322Z,8.40
2023-02-25T12:07:17.768Z,8.40
2023-02-25T12:10:02.958Z,8.40
2023-02-25T12:12:37.801Z,8.40
2023-02-25T12:15:23.741Z,8.40
2023-02-25T12:18:16.750Z,8.40
2023-02-25T12:20:52.392Z,8.30
2023-02-25T12:23:43.842Z,8.20
2023-02-25T12:26:14.083Z,8.20
2023-02-25T12:29:00.316Z,8.20
2023-02-25T12:31:39.169Z,8.20
2023-02-25T12:34:35.140Z,8.30
2023-02-25T12:37:27.828Z,8.30
2023-02-25T12:40:06.399Z,8.20
2023-02-25T12:42:45.556Z,8.20
2023-02-25T12:45:39.265Z,8.20
2023-02-25T12:48:30.643Z,8.20
2023-02-25T12:51:15.397Z,8.20
2023-02-25T12:54:01.906Z,8.20
2023-02-25T12:56:55.132Z,8.10
2023-02-25T12:59:49.338Z,8.00
2023-02-25T13:02:50.277Z,8.10
2023-02-25T13:05:37.211Z,8.10
2023-02-25T13:08:03.673Z,8.10
2023-02-25T13:10:39.945Z,8.10
2023-02-25T13:13:46.199Z,8.00
2023-02-25T13:16:33.687Z,8.00
2023-02-25T13:19:34.062Z,8.10
2023-02-25T13:22:13.007Z,8.10
2023-02-25T13:24:53.892Z,8.10
2023-02-25T13:27:55.007Z,8.10
2023-02-25T13:30:34.466Z,8.00
2023-02-25T13:33:25.768Z,8.00
2023-02-25T13:36:06.948Z,8.00
2023-02-25T13:38:40.069Z,8.00
2023-02-25T13:41:48.463Z,8.00
2023-02-25T13:44:39.398Z,7.90
2023-02-25T13:47:17.931Z,7.80
2023-02-25T13:50:24.598Z,7.80
2023-02-25T13:53:20.364Z,7.80
2023-02-25T13:56:19.546Z,7.90
2023-02-25T13:59:07.248Z,7.90
2023-02-25T14:01:55.752Z,7.90
2023-02-25T14:05:16.260Z,7.80
2023-02-25T14:08:10.116Z,7.70
2023-02-25T14:10:46.886Z,7.60
2023-02-25T14:13:25.006Z,7.70
2023-02-25T14:16:18.399Z,7.60
2023-02-25T14:18:57.267Z,7.70
2023-02-25T14:22:05.529Z,7.70
2023-02-25T14:24:40.565Z,7.70
2023-02-25T14:27:41.199Z,7.70
2023-02-25T14:30:53.840Z,7.70
2023-02-25T14:33:46.482Z,7.60
2023-02-25T14:36:34.171Z,7.70
2023-02-25T14:39:15.850Z,7.60
2023-02-25T14:42:06.789Z,7.50
2023-02-25T14:44:39.535Z,7.50
2023-02-25T14:47:14.681Z,7.50
2023-02-25T14:49:56.548Z,7.50
2023-02-25T14:52:47.269Z,7.50
2023-02-25T14:55:45.984Z,7.50
2023-02-25T14:58:50.704Z,7.50
2023-02-25T15:01:39.176Z,7.50
2023-02-25T15:04:21.828Z,7.50
2023-02-25T15:07:07.460Z,7.50
2023-02-25T15:10:01.700Z,7.60
2023-02-25T15:12:46.899Z,7.50
2023-02-25T15:15:41.099Z,7.60
2023-02-25T15:18:19.587Z,7.60
2023-02-25T15:20:46.701Z,7.50
2023-02-25T15:23:19.560Z,7.40
2023-02-25T15:26:11.561Z,7.20
2023-02-25T15:28:43.774Z,7.00
2023-02-25T15:31:28.694Z,6.90
2023-02-25T15:34:22.332Z,6.90
2023-02-25T15:36:51.771Z,6.80
2023-02-25T15:39:44.083Z,6.60
2023-02-25T15:42:13.904Z,6.60
2023-02-25T15:44:45.660Z,6.60
2023-02-25T15:47:21.466Z,6.70
2023-02-25T15:49:49.795Z,6.80
2023-02-25T15:53:01.605Z,6.80
2023-02-25T15:55:35.432Z,6.70
2023-02-25T15:58:02.475Z,6.70
2023-02-25T16:00:50.192Z,6.70
2023-02-25T16:03:43.401Z,6.80
2023-02-25T16:06:40.288Z,6.80
2023-02-25T16:09:11.855Z,6.80
2023-02-25T16:11:44.865Z,6.80
2023-02-25T16:14:31.365Z,6.80
2023-02-25T16:17:17.780Z,6.80
2023-02-25T16:19:50.339Z,6.80
2023-02-25T16:22:23.979Z,6.70
2023-02-25T16:24:56.124Z,6.70
2023-02-25T16:27:33.229Z,6.60
2023-02-25T16:30:12.581Z,6.60
2023-02-25T16:32:54.746Z,6.70
2023-02-25T16:35:44.522Z,6.70
2023-02-25T16:38:32.418Z,6.70
2023-02-25T16:41:00.307Z,6.80
2023-02-25T16:43:30.025Z,6.80
2023-02-25T16:46:03.265Z,6.80
2023-02-25T16:48:34.620Z,6.70
2023-02-25T16:51:12.755Z,6.60
2023-02-25T16:53:45.444Z,6.50
2023-02-25T16:56:19.874Z,6.50
2023-02-25T16:59:21.553Z,6.50
2023-02-25T17:01:57.364Z,6.50
2023-02-25T17:04:36.230Z,6.60
2023-02-25T17:07:07.724Z,6.60
2023-02-25T17:09:35.396Z,6.70
2023-02-25T17:12:03.520Z,6.70
2023-02-25T17:14:31.075Z,6.70
2023-02-25T17:16:58.341Z,6.70
2023-02-25T17:19:25.379Z,6.70
2023-02-25T17:21:58.522Z,6.70
2023-02-25T17:24:30.934Z,6.70
2023-02-25T17:26:57.847Z,6.70
2023-02-25T17:29:34.637Z,6.70
2023-02-25T17:32:13.426Z,6.70
2023-02-25T17:34:41.283Z,6.80
2023-02-25T17:37:12.148Z,6.70
2023-02-25T17:39:40.146Z,6.70
2023-02-25T17:42:25.756Z,6.70
2023-02-25T17:44:52.338Z,6.70
2023-02-25T17:47:23.027Z,6.70
2023-02-25T17:49:50.843Z,6.70
2023-02-25T17:52:20.387Z,6.70
2023-02-25T17:54:53.538Z,6.70
2023-02-25T17:57:22.745Z,6.70
2023-02-25T17:59:56.701Z,6.70
2023-02-25T18:02:39.843Z,6.70
2023-02-25T18:05:12.203Z,6.70
2023-02-25T18:07:43.242Z,6.60
2023-02-25T18:10:27.813Z,6.60
2023-02-25T18:12:55.324Z,6.70
2023-02-25T18:15:31.341Z,6.70
2023-02-25T18:18:01.308Z,6.70
2023-02-25T18:20:36.513Z,6.80
2023-02-25T18:23:07.175Z,6.80
2023-02-25T18:25:41.161Z,6.70
2023-02-25T18:28:14.526Z,6.70
2023-02-25T18:30:43.828Z,6.70
2023-02-25T18:33:11.459Z,6.60
2023-02-25T18:35:41.080Z,6.60
2023-02-25T18:38:15.567Z,6.60
2023-02-25T18:40:42.179Z,6.60
2023-02-25T18:43:19.518Z,6.60
2023-02-25T18:45:46.458Z,6.50
2023-02-25T18:48:13.499Z,6.50
2023-02-25T18:50:44.315Z,6.50
2023-02-25T18:53:16.762Z,6.50
2023-02-25T18:55:43.367Z,6.50
2023-02-25T18:58:14.559Z,6.50
2023-02-25T19:00:42.352Z,6.60
2023-02-25T19:03:14.247Z,6.60
2023-02-25T19:05:40.888Z,6.60
2023-02-25T19:08:13.132Z,6.60
2023-02-25T19:10:39.966Z,6.60
2023-02-25T19:13:14.533Z,6.50
2023-02-25T19:15:41.233Z,6.50
2023-02-25T19:18:12.804Z,6.50
2023-02-25T19:20:39.459Z,6.40
2023-02-25T19:23:06.058Z,6.40
2023-02-25T19:25:36.143Z,6.40
2023-02-25T19:28:04.351Z,6.30
2023-02-25T19:30:34.864Z,6.30
2023-02-25T19:33:04.895Z,6.30
2023-02-25T19:35:38.618Z,6.30
2023-02-25T19:38:06.453Z,6.30
2023-02-25T19:40:33.409Z,6.30
2023-02-25T19:43:00.151Z,6.20
2023-02-25T19:45:27.153Z,6.30
2023-02-25T19:47:54.848Z,6.20
2023-02-25T19:50:24.665Z,6.30
2023-02-25T19:52:53.040Z,6.30
2023-02-25T19:55:20.137Z,6.30
2023-02-25T19:57:46.777Z,6.30
2023-02-25T20:00:18.935Z,6.30
2023-02-25T20:02:45.500Z,6.20
2023-02-25T20:05:13.019Z,6.20
2023-02-25T20:07:39.683Z,6.10
2023-02-25T20:10:10.788Z,6.00
2023-02-25T20:12:38.265Z,6.00
2023-02-25T20:15:06.836Z,6.00
2023-02-25T20:17:36.462Z,6.00
2023-02-25T20:20:04.067Z,5.90
2023-02-25T20:22:30.634Z,5.90
2023-02-25T20:24:57.170Z,5.90
2023-02-25T20:27:24.061Z,5.80
2023-02-25T20:29:50.646Z,5.70
2023-02-25T20:32:17.318Z,5.70
2023-02-25T20:34:44.095Z,5.60
2023-02-25T20:37:21.006Z,5.50
2023-02-25T20:39:53.328Z,5.40
2023-02-25T20:42:25.221Z,5.30
2023-02-25T20:44:52.868Z,5.20
2023-02-25T20:47:28.410Z,5.20
2023-02-25T20:49:56.032Z,5.20
2023-02-25T20:52:24.257Z,5.10
2023-02-25T20:54:50.834Z,5.10
2023-02-25T20:57:19.682Z,5.10
2023-02-25T20:59:48.085Z,5.00
2023-02-25T21:02:15.818Z,5.00
2023-02-25T21:04:43.657Z,5.00
2023-02-25T21:07:10.718Z,4.90
2023-02-25T21:09:37.327Z,4.90
2023-02-25T21:12:04.119Z,4.90
2023-02-25T21:14:30.840Z,4.90
2023-02-25T21:16:57.506Z,4.90
2023-02-25T21:19:26.324Z,4.90
2023-02-25T21:21:52.911Z,4.90
2023-02-25T21:24:20.091Z,4.90
2023-02-25T21:26:46.804Z,4.90
2023-02-25T21:29:14.085Z,4.90
2023-02-25T21:31:40.872Z,4.90
2023-02-25T21:34:09.047Z,4.90
2023-02-25T21:36:35.826Z,4.90
2023-02-25T21:39:03.419Z,4.80
2023-02-25T21:41:30.107Z,4.80
2023-02-25T21:43:57.132Z,4.80
2023-02-25T21:46:24.577Z,4.80
2023-02-25T21:48:53.094Z,4.80
2023-02-25T21:51:22.221Z,4.80
2023-02-25T21:53:52.824Z,4.70
2023-02-25T21:56:19.426Z,4.70
2023-02-25T21:58:46.081Z,4.70
2023-02-25T22:01:18.716Z,4.80
2023-02-25T22:03:46.137Z,4.90
2023-02-25T22:06:12.972Z,4.90
2023-02-25T22:08:40.804Z,5.00
2023-02-25T22:11:19.304Z,5.00
2023-02-25T22:13:46.053Z,5.00
2023-02-25T22:16:14.603Z,5.10
2023-02-25T22:18:41.784Z,5.00
2023-02-25T22:21:15.642Z,5.00
2023-02-25T22:23:45.597Z,5.00
2023-02-25T22:26:15.332Z,5.00
2023-02-25T22:28:43.185Z,5.00
2023-02-25T22:31:12.915Z,5.00
2023-02-25T22:33:39.706Z,5.00
2023-02-25T22:36:07.532Z,5.00
2023-02-25T22:38:36.925Z,5.00
2023-02-25T22:41:05.130Z,4.90
2023-02-25T22:43:32.869Z,4.90
2023-02-25T22:46:11.257Z,4.90
2023-02-25T22:48:39.792Z,4.90
2023-02-25T22:51:09.289Z,4.80
2023-02-25T22:53:40.288Z,4.70
2023-02-25T22:56:09.738Z,4.80
2023-02-25T22:58:38.742Z,4.80
2023-02-25T23:01:06.258Z,4.80
2023-02-25T23:03:32.872Z,4.80
2023-02-25T23:06:00.111Z,4.70
2023-02-25T23:08:27.211Z,4.60
2023-02-25T23:10:54.417Z,4.50
2023-02-25T23:13:21.008Z,4.60
2023-02-25T23:15:47.827Z,4.50
2023-02-25T23:18:15.694Z,4.50
2023-02-25T23:20:42.786Z,4.50
2023-02-25T23:23:09.514Z,4.50
2023-02-25T23:25:39.688Z,4.50
2023-02-25T23:28:08.389Z,4.60
2023-02-25T23:30:38.843Z,4.60
2023-02-25T23:33:06.267Z,4.50
2023-02-25T23:35:33.608Z,4.60
2023-02-25T23:38:00.749Z,4.50
2023-02-25T23:40:28.754Z,4.50
2023-02-25T23:42:55.556Z,4.40
2023-02-25T23:45:22.208Z,4.40
2023-02-25T23:47:48.747Z,4.20
2023-02-25T23:50:16.677Z,4.20
2023-02-25T23:52:44.985Z,4.20
2023-02-25T23:55:13.054Z,4.10
2023-02-25T23:57:40.218Z,4.10
